createdAt,value
2023-09-10T00:02:23.942Z,17.31
2023-09-10T00:07:25.818Z,17.25
2023-09-10T00:12:27.735Z,17.20
2023-09-10T00:17:29.746Z,17.18
2023-09-10T00:22:33.147Z,17.16
2023-09-10T00:27:35.054Z,17.11
2023-09-10T00:32:37.384Z,17.06
2023-09-10T00:37:39.751Z,17.00
2023-09-10T00:42:41.969Z,16.93
2023-09-10T00:47:48.201Z,16.86
2023-09-10T00:52:54.207Z,16.77
2023-09-10T00:57:56.892Z,16.71
2023-09-10T01:03:00.332Z,16.59
2023-09-10T01:08:04.542Z,16.52
2023-09-10T01:13:10.523Z,16.49
2023-09-10T01:18:28.208Z,16.49
2023-09-10T01:23:49.114Z,16.46
2023-09-10T01:28:51.112Z,16.40
2023-09-10T01:33:57.530Z,16.35
2023-09-10T01:39:24.596Z,16.30
2023-09-10T01:44:27.932Z,16.23
2023-09-10T01:49:30.112Z,16.18
2023-09-10T01:54:31.910Z,16.13
2023-09-10T01:59:33.885Z,16.07
2023-09-10T02:04:36.172Z,15.98
2023-09-10T02:09:38.041Z,15.92
2023-09-10T02:14:40.014Z,15.90
2023-09-10T02:19:42.082Z,15.86
2023-09-10T02:24:44.404Z,15.82
2023-09-10T02:29:46.229Z,15.79
2023-09-10T02:34:48.211Z,15.77
2023-09-10T02:39:50.087Z,15.76
2023-09-10T02:44:51.968Z,15.77
2023-09-10T02:49:55.716Z,15.75
2023-09-10T02:54:58.787Z,15.74
2023-09-10T03:00:00.907Z,15.73
2023-09-10T03:05:02.969Z,15.72
2023-09-10T03:10:05.657Z,15.71
2023-09-10T03:15:08.069Z,15.66
2023-09-10T03:20:11.003Z,15.63
2023-09-10T03:25:13.279Z,15.60
2023-09-10T03:30:17.656Z,15.56
2023-09-10T03:35:19.648Z,15.53
2023-09-10T03:40:21.718Z,15.50
2023-09-10T03:45:23.979Z,15.48
2023-09-10T03:50:26.264Z,15.46
2023-09-10T03:55:28.620Z,15.45
2023-09-10T04:00:30.699Z,15.44
2023-09-10T04:05:32.837Z,15.43
2023-09-10T04:10:34.694Z,15.43
2023-09-10T04:15:36.795Z,15.44
2023-09-10T04:20:38.593Z,15.44
2023-09-10T04:25:40.480Z,15.44
2023-09-10T04:30:42.516Z,15.45
2023-09-10T04:35:54.979Z,15.47
2023-09-10T04:40:57.836Z,15.49
2023-09-10T04:46:00.650Z,15.56
2023-09-10T04:51:03.368Z,15.62
2023-09-10T04:56:05.593Z,15.61
2023-09-10T05:01:07.834Z,15.64
2023-09-10T05:06:11.066Z,15.71
2023-09-10T05:11:15.935Z,15.76
2023-09-10T05:16:18.304Z,15.82
2023-09-10T05:21:21.458Z,15.94
2023-09-10T05:26:24.085Z,16.13
2023-09-10T05:31:26.298Z,16.32
2023-09-10T05:36:29.128Z,16.53
2023-09-10T05:41:31.935Z,16.75
2023-09-10T05:46:34.520Z,16.99
2023-09-10T05:51:36.656Z,17.24
2023-09-10T05:56:38.738Z,17.49
2023-09-10T06:01:40.781Z,17.78
2023-09-10T06:06:43.195Z,18.08
2023-09-10T06:11:45.130Z,18.37
2023-09-10T06:16:47.451Z,18.65
2023-09-10T06:21:49.632Z,18.93
2023-09-10T06:26:51.810Z,19.19
2023-09-10T06:31:53.982Z,19.44
2023-09-10T06:36:56.318Z,19.69
2023-09-10T06:41:58.342Z,19.93
2023-09-10T06:47:02.108Z,20.11
2023-09-10T06:52:06.023Z,20.30
2023-09-10T06:57:08.178Z,20.45
2023-09-10T07:02:10.275Z,20.61
2023-09-10T07:07:12.270Z,20.81
2023-09-10T07:12:14.116Z,20.99
2023-09-10T07:17:16.659Z,21.19
2023-09-10T07:22:18.721Z,21.37
2023-09-10T07:27:20.652Z,21.57
2023-09-10T07:32:22.707Z,21.82
2023-09-10T07:37:24.681Z,22.06
2023-09-10T07:42:26.630Z,22.27
2023-09-10T07:47:28.679Z,22.51
2023-09-10T07:52:30.670Z,22.73
2023-09-10T07:57:32.720Z,22.98
2023-09-10T08:02:36.508Z,23.26
2023-09-10T08:07:38.455Z,23.52
2023-09-10T08:12:40.409Z,23.75
2023-09-10T08:17:42.643Z,24.00
2023-09-10T08:22:44.977Z,24.24
2023-09-10T08:27:46.935Z,24.45
2023-09-10T08:32:50.833Z,24.64
2023-09-10T08:37:52.933Z,24.88
2023-09-10T08:43:12.355Z,25.09
2023-09-10T08:48:16.155Z,25.33
2023-09-10T08:53:19.280Z,25.53
2023-09-10T08:58:24.073Z,25.72
2023-09-10T09:03:26.990Z,25.96
2023-09-10T09:08:34.415Z,26.15
2023-09-10T09:13:39.541Z,26.29
2023-09-10T09:18:42.617Z,26.39
2023-09-10T09:23:47.745Z,26.22
2023-09-10T09:28:50.363Z,26.16
2023-09-10T09:33:53.526Z,26.25
2023-09-10T09:38:55.951Z,26.50
2023-09-10T09:43:58.405Z,26.43
2023-09-10T09:49:00.672Z,26.43
2023-09-10T09:54:03.226Z,26.48
2023-09-10T09:59:05.987Z,26.56
2023-09-10T10:04:10.397Z,26.65
2023-09-10T10:09:23.433Z,26.76
2023-09-10T10:14:40.325Z,26.89
2023-09-10T10:19:51.869Z,26.97
2023-09-10T10:25:07.106Z,27.09
2023-09-10T10:30:10.834Z,27.21
2023-09-10T10:35:14.164Z,27.27
2023-09-10T10:40:25.967Z,27.36
2023-09-10T10:45:31.170Z,27.48
2023-09-10T10:50:36.976Z,27.61
2023-09-10T10:55:45.976Z,27.67
2023-09-10T11:01:06.116Z,27.66
2023-09-10T11:06:08.835Z,27.72
2023-09-10T11:11:31.862Z,27.84
2023-09-10T11:16:45.194Z,27.98
2023-09-10T11:21:56.079Z,28.12
2023-09-10T11:27:22.489Z,28.24
2023-09-10T11:32:24.467Z,28.26
2023-09-10T11:37:27.155Z,28.32
2023-09-10T11:42:28.988Z,28.39
2023-09-10T11:47:31.610Z,28.49
2023-09-10T11:52:34.595Z,28.58
2023-09-10T11:57:37.799Z,28.55
2023-09-10T12:02:39.733Z,28.56
2023-09-10T12:07:45.511Z,28.63
2023-09-10T12:12:49.711Z,28.70
2023-09-10T12:17:51.719Z,28.77
2023-09-10T12:22:54.819Z,28.87
2023-09-10T12:27:57.768Z,29.00
2023-09-10T12:33:01.077Z,29.10
2023-09-10T12:38:03.116Z,29.16
2023-09-10T12:43:05.367Z,29.20
2023-09-10T12:48:07.743Z,29.26
2023-09-10T12:53:09.929Z,29.30
2023-09-10T12:58:13.505Z,29.31
2023-09-10T13:03:15.711Z,29.35
2023-09-10T13:08:17.797Z,29.41
2023-09-10T13:13:19.748Z,29.37
2023-09-10T13:18:21.680Z,29.38
2023-09-10T13:23:23.870Z,29.44
2023-09-10T13:28:25.851Z,29.49
2023-09-10T13:33:27.680Z,29.52
2023-09-10T13:38:29.551Z,29.59
2023-09-10T13:43:31.421Z,29.58
2023-09-10T13:48:33.529Z,29.50
2023-09-10T13:53:40.530Z,29.46
2023-09-10T13:58:42.624Z,29.37
2023-09-10T14:03:45.629Z,29.30
2023-09-10T14:08:47.660Z,29.28
2023-09-10T14:13:49.676Z,29.26
2023-09-10T14:18:51.631Z,29.27
2023-09-10T14:23:53.625Z,29.25
2023-09-10T14:28:55.561Z,29.25
2023-09-10T14:33:57.496Z,29.23
2023-09-10T14:38:59.429Z,29.21
2023-09-10T14:44:01.321Z,29.19
2023-09-10T14:49:03.179Z,29.11
2023-09-10T14:54:05.142Z,29.06
2023-09-10T14:59:07.039Z,29.04
2023-09-10T15:04:09.517Z,29.00
2023-09-10T15:09:11.545Z,28.95
2023-09-10T15:14:13.462Z,28.88
2023-09-10T15:19:15.324Z,28.77
2023-09-10T15:24:17.204Z,28.66
2023-09-10T15:29:19.142Z,28.56
2023-09-10T15:34:21.920Z,28.47
2023-09-10T15:39:24.635Z,28.39
2023-09-10T15:44:26.712Z,28.29
2023-09-10T15:49:28.553Z,28.17
2023-09-10T15:54:31.629Z,28.05
2023-09-10T15:59:34.810Z,27.91
2023-09-10T16:04:36.639Z,27.77
2023-09-10T16:09:38.499Z,27.58
2023-09-10T16:14:40.594Z,27.35
2023-09-10T16:19:42.543Z,27.13
2023-09-10T16:24:44.397Z,26.91
2023-09-10T16:29:46.183Z,26.68
2023-09-10T16:34:48.011Z,26.46
2023-09-10T16:39:49.896Z,26.24
2023-09-10T16:44:51.742Z,26.00
2023-09-10T16:49:53.750Z,25.74
2023-09-10T16:54:55.722Z,25.46
2023-09-10T16:59:57.631Z,25.19
2023-09-10T17:04:59.498Z,24.92
2023-09-10T17:10:01.354Z,24.63
2023-09-10T17:15:03.582Z,24.35
2023-09-10T17:20:06.979Z,24.07
2023-09-10T17:25:09.471Z,23.80
2023-09-10T17:30:11.772Z,23.52
2023-09-10T17:35:14.184Z,23.27
2023-09-10T17:40:16.162Z,23.01
2023-09-10T17:45:18.093Z,22.87
2023-09-10T17:50:19.928Z,23.02
2023-09-10T17:55:21.833Z,23.06
2023-09-10T18:00:23.993Z,23.04
2023-09-10T18:05:25.986Z,22.99
2023-09-10T18:10:27.867Z,22.92
2023-09-10T18:15:29.972Z,22.85
2023-09-10T18:20:31.954Z,22.77
2023-09-10T18:25:33.950Z,22.68
2023-09-10T18:30:35.916Z,22.60
2023-09-10T18:35:37.922Z,22.50
2023-09-10T18:40:44.758Z,22.39
2023-09-10T18:45:46.701Z,22.29
2023-09-10T18:50:48.589Z,22.18
2023-09-10T18:55:51.524Z,22.07
2023-09-10T19:00:58.121Z,21.97
2023-09-10T19:06:01.604Z,21.86
2023-09-10T19:11:03.779Z,21.76
2023-09-10T19:16:05.841Z,21.65
2023-09-10T19:21:08.125Z,21.56
2023-09-10T19:26:10.224Z,21.47
2023-09-10T19:31:12.856Z,21.38
2023-09-10T19:36:16.785Z,21.30
2023-09-10T19:41:18.728Z,21.23
2023-09-10T19:46:21.083Z,21.16
2023-09-10T19:51:23.000Z,21.09
2023-09-10T19:56:27.608Z,21.01
2023-09-10T20:01:31.075Z,20.93
2023-09-10T20:06:35.884Z,20.87
2023-09-10T20:11:38.913Z,20.80
2023-09-10T20:16:40.897Z,20.74
2023-09-10T20:21:43.104Z,20.67
2023-09-10T20:26:45.246Z,20.58
2023-09-10T20:31:48.893Z,20.48
2023-09-10T20:36:51.266Z,20.37
2023-09-10T20:41:56.970Z,20.27
2023-09-10T20:46:58.883Z,20.18
2023-09-10T20:52:00.932Z,20.10
2023-09-10T20:57:04.441Z,20.02
2023-09-10T21:02:06.389Z,19.94
2023-09-10T21:07:08.439Z,19.87
2023-09-10T21:12:16.277Z,19.79
2023-09-10T21:17:18.371Z,19.73
2023-09-10T21:22:21.056Z,19.68
2023-09-10T21:27:22.946Z,19.61
2023-09-10T21:32:24.985Z,19.55
2023-09-10T21:37:26.861Z,19.48
2023-09-10T21:42:28.806Z,19.43
2023-09-10T21:47:30.721Z,19.38
2023-09-10T21:52:32.781Z,19.34
2023-09-10T21:57:34.801Z,19.28
2023-09-10T22:02:36.731Z,19.24
2023-09-10T22:07:38.868Z,19.20
2023-09-10T22:12:40.998Z,19.15
2023-09-10T22:17:42.959Z,19.10
2023-09-10T22:22:44.835Z,19.06
2023-09-10T22:27:46.668Z,19.01
2023-09-10T22:32:49.246Z,18.96
2023-09-10T22:37:51.227Z,18.91
2023-09-10T22:42:53.165Z,18.86
2023-09-10T22:47:55.151Z,18.81
2023-09-10T22:52:57.284Z,18.76
2023-09-10T22:57:59.138Z,18.73
2023-09-10T23:03:01.253Z,18.69
2023-09-10T23:08:03.440Z,18.64
2023-09-10T23:13:11.295Z,18.62
2023-09-10T23:18:13.309Z,18.64
2023-09-10T23:23:15.511Z,18.60
2023-09-10T23:28:17.413Z,18.55
2023-09-10T23:33:19.318Z,18.50
2023-09-10T23:38:24.765Z,18.44
2023-09-10T23:43:26.994Z,18.38
2023-09-10T23:48:28.941Z,18.33
2023-09-10T23:53:30.856Z,18.30
2023-09-10T23:58:34.900Z,18.27
